Time;durP1;ratioP1;P1;durP2;ratioP2;P2;SDS_P1;SDS_P2;PMS_P1;PMS_P2;Temp;Humidity;BMP_temperature;BMP_pressure;BME280_temperature;BME280_humidity;BME280_pressure;Samples;Min_cycle;Max_cycle;Signal;HPM_P1;HPM_P2
2021/03/05 00:01:14;;;;;;;5.88;1.38;;;;;;;-0.65;61.61;101166.78;5083453;28;20020;-67
2021/03/05 00:03:40;;;;;;;2.85;1.10;;;;;;;-0.64;61.48;101166.00;5083486;28;20013;-66
2021/03/05 00:06:06;;;;;;;3.00;1.63;;;;;;;-0.66;61.47;101168.47;5083536;28;20028;-67
2021/03/05 00:08:31;;;;;;;4.50;1.10;;;;;;;-0.70;61.71;101158.91;5083421;28;20056;-67
2021/03/05 00:11:00;;;;;;;5.20;1.42;;;;;;;-0.72;62.33;101151.97;5083603;28;20111;-67
2021/03/05 00:13:25;;;;;;;3.72;1.13;;;;;;;-0.57;62.22;101174.81;5083745;28;20020;-67
2021/03/05 00:15:51;;;;;;;3.55;1.10;;;;;;;-0.56;62.16;101167.22;5083255;28;20028;-67
2021/03/05 00:18:17;;;;;;;6.40;1.42;;;;;;;-0.52;62.30;101163.16;5064975;28;20086;-67
2021/03/05 00:20:51;;;;;;;3.35;1.20;;;;;;;-0.51;62.48;101167.47;5083615;28;20048;-67
2021/03/05 00:23:17;;;;;;;8.30;1.25;;;;;;;-0.51;62.21;101168.34;5082533;28;20020;-67
2021/03/05 00:25:42;;;;;;;3.25;1.33;;;;;;;-0.56;62.34;101164.69;5083220;28;20099;-66
2021/03/05 00:28:08;;;;;;;4.00;1.00;;;;;;;-0.55;62.07;101166.44;5083111;28;20616;-66
2021/03/05 00:30:34;;;;;;;2.30;1.13;;;;;;;-0.54;62.18;101164.75;5083557;28;20032;-67
2021/03/05 00:33:01;;;;;;;1.98;1.23;;;;;;;-0.55;62.33;101168.13;5065008;28;20027;-67
2021/03/05 00:35:27;;;;;;;3.08;1.58;;;;;;;-0.54;62.27;101165.63;5083294;28;20396;-67
2021/03/05 00:37:52;;;;;;;6.70;1.90;;;;;;;-0.55;62.27;101175.78;5083254;28;20053;-67
2021/03/05 00:40:20;;;;;;;5.82;1.20;;;;;;;-0.58;62.34;101173.94;5082962;28;20052;-68
2021/03/05 00:42:46;;;;;;;3.67;1.73;;;;;;;-0.60;62.51;101172.09;5083175;28;20104;-67
2021/03/05 00:45:14;;;;;;;7.82;2.20;;;;;;;-0.62;62.69;101179.69;5064984;28;20039;-67
2021/03/05 00:47:40;;;;;;;9.52;1.42;;;;;;;-0.64;62.76;101182.16;5082873;28;20016;-67
2021/03/05 00:50:07;;;;;;;3.30;1.40;;;;;;;-0.69;62.36;101167.44;5083162;28;20090;-67
2021/03/05 00:52:33;;;;;;;2.65;1.30;;;;;;;-0.72;62.51;101180.91;5083191;28;20465;-66
2021/03/05 00:54:58;;;;;;;4.03;1.35;;;;;;;-0.76;62.51;101182.44;5082925;28;20032;-66
2021/03/05 00:57:24;;;;;;;4.28;1.88;;;;;;;-0.79;62.52;101182.28;5083065;28;20533;-67
2021/03/05 00:59:49;;;;;;;4.13;1.30;;;;;;;-0.83;62.69;101185.44;5082970;28;20025;-67
2021/03/05 01:02:14;;;;;;;9.45;1.98;;;;;;;-0.83;62.90;101182.03;5082742;28;20033;-66
2021/03/05 01:04:40;;;;;;;10.60;1.60;;;;;;;-0.85;63.02;101181.09;5082853;28;20369;-66
2021/03/05 01:07:08;;;;;;;4.55;1.63;;;;;;;-0.87;62.85;101188.66;5082777;28;20024;-67
2021/03/05 01:09:34;;;;;;;5.25;1.27;;;;;;;-0.83;63.17;101187.16;5082810;28;20070;-66
2021/03/05 01:12:00;;;;;;;3.90;1.70;;;;;;;-0.85;62.99;101181.97;5082910;28;20032;-67
2021/03/05 01:14:25;;;;;;;2.95;1.33;;;;;;;-0.85;63.26;101181.09;5082984;28;20020;-66
2021/03/05 01:16:51;;;;;;;8.27;3.47;;;;;;;-0.89;63.48;101186.03;5082649;28;20413;-65
2021/03/05 01:19:17;;;;;;;6.25;1.58;;;;;;;-0.88;63.58;101189.47;5082696;28;20584;-68
2021/03/05 01:21:42;;;;;;;5.93;1.35;;;;;;;-0.89;63.66;101195.34;5082937;28;20046;-68
2021/03/05 01:24:09;;;;;;;4.72;1.30;;;;;;;-0.88;63.90;101194.56;5082814;28;20035;-68
2021/03/05 01:26:35;;;;;;;5.97;1.20;;;;;;;-0.89;63.82;101195.34;5064867;28;20024;-67
2021/03/05 01:29:01;;;;;;;2.33;1.40;;;;;;;-0.91;64.18;101202.06;5082737;28;20065;-68
2021/03/05 01:31:26;;;;;;;6.93;1.27;;;;;;;-0.92;64.39;101201.16;5082869;28;20024;-68
2021/03/05 01:33:52;;;;;;;3.88;1.20;;;;;;;-0.92;64.42;101198.63;5082340;28;20023;-67
2021/03/05 01:36:17;;;;;;;4.00;1.38;;;;;;;-0.91;64.24;101207.16;5086006;28;20060;-68
2021/03/05 01:38:43;;;;;;;4.88;1.27;;;;;;;-0.91;63.96;101208.00;5086267;28;20025;-67
2021/03/05 01:41:08;;;;;;;4.38;2.15;;;;;;;-0.92;63.99;101210.47;5086287;28;20068;-68
2021/03/05 01:43:39;;;;;;;2.40;1.20;;;;;;;-0.95;63.88;101211.22;5086225;28;20093;-68
2021/03/05 01:46:05;;;;;;;8.05;1.58;;;;;;;-0.94;63.74;101205.31;5086058;28;20396;-68
2021/03/05 01:48:30;;;;;;;3.75;1.40;;;;;;;-0.94;64.04;101207.00;5085856;28;20028;-68
2021/03/05 01:51:13;;;;;;;2.08;1.15;;;;;;;-0.93;63.79;101206.19;5086209;28;20054;-67
2021/03/05 01:53:40;;;;;;;5.15;1.50;;;;;;;-0.92;63.87;101210.47;5085919;28;20028;-67
2021/03/05 01:56:07;;;;;;;3.20;1.35;;;;;;;-0.94;63.77;101201.91;5085903;28;20024;-66
2021/03/05 01:58:34;;;;;;;3.95;1.20;;;;;;;-0.97;63.70;101212.78;5085986;28;20516;-67
2021/03/05 02:01:09;;;;;;;5.90;1.63;;;;;;;-0.98;63.85;101200.84;5085662;28;20032;-67
2021/03/05 02:03:35;;;;;;;2.40;1.15;;;;;;;-1.08;63.70;101194.41;5085649;28;20024;-67
2021/03/05 02:06:02;;;;;;;3.35;1.20;;;;;;;-1.05;63.57;101204.75;5085667;28;20082;-67
2021/03/05 02:08:28;;;;;;;14.10;1.50;;;;;;;-1.05;63.47;101203.84;5085813;28;20028;-67
2021/03/05 02:10:53;;;;;;;7.05;1.15;;;;;;;-1.09;63.51;101210.50;5085629;28;20028;-67
2021/03/05 02:13:19;;;;;;;4.60;1.13;;;;;;;-1.16;63.54;101205.84;5085734;28;20027;-67
2021/03/05 02:15:44;;;;;;;2.03;1.13;;;;;;;-1.13;63.38;101214.53;5085350;28;20611;-67
2021/03/05 02:18:31;;;;;;;4.63;1.10;;;;;;;-1.14;63.21;101219.56;5085248;28;20052;-67
2021/03/05 02:21:15;;;;;;;2.35;1.00;;;;;;;-1.14;63.18;101227.22;5085568;28;20029;-67
2021/03/05 02:23:48;;;;;;;6.03;1.33;;;;;;;-1.18;63.04;101225.31;5085445;28;20035;-67
2021/03/05 02:26:55;;;;;;;3.70;1.55;;;;;;;-1.30;62.88;101206.00;5085239;28;20361;-66
2021/03/05 02:29:48;;;;;;;2.45;1.85;;;;;;;-1.26;62.77;101219.78;5085317;28;20047;-66
2021/03/05 02:32:21;;;;;;;3.22;1.25;;;;;;;-1.31;62.82;101216.13;5085055;28;20055;-66
2021/03/05 02:34:48;;;;;;;5.38;0.85;;;;;;;-1.33;62.98;101226.22;5085320;28;20044;-67
2021/03/05 02:37:15;;;;;;;1.92;0.88;;;;;;;-1.32;62.73;101220.34;5085034;28;20035;-67
2021/03/05 02:40:09;;;;;;;1.38;1.10;;;;;;;-1.37;62.96;101215.00;5084688;28;20543;-66
2021/03/05 02:42:37;;;;;;;3.05;0.98;;;;;;;-1.35;62.72;101219.28;5081812;28;20045;-67
2021/03/05 02:45:27;;;;;;;4.75;1.30;;;;;;;-1.40;62.86;101219.94;5084942;28;20021;-66
2021/03/05 02:48:00;;;;;;;5.65;1.40;;;;;;;-1.43;62.52;101213.78;5084236;28;20032;-66
2021/03/05 02:50:27;;;;;;;3.97;1.20;;;;;;;-1.46;62.58;101214.50;5084757;28;20021;-66
2021/03/05 02:52:59;;;;;;;1.80;1.00;;;;;;;-1.51;62.62;101211.72;5084979;28;20028;-67
2021/03/05 02:55:26;;;;;;;3.30;1.52;;;;;;;-1.54;62.52;101210.66;5084795;28;20016;-67
2021/03/05 02:57:56;;;;;;;5.05;1.20;;;;;;;-1.59;62.61;101210.41;5084774;28;20085;-66
2021/03/05 03:00:23;;;;;;;5.32;1.50;;;;;;;-1.67;63.10;101211.66;5084779;28;20039;-67
2021/03/05 03:02:52;;;;;;;3.45;0.95;;;;;;;-1.67;63.24;101214.19;5084365;28;20119;-67
2021/03/05 03:05:18;;;;;;;5.18;1.63;;;;;;;-1.72;63.72;101205.44;5084582;28;20017;-67
2021/03/05 03:07:44;;;;;;;2.83;1.25;;;;;;;-1.73;63.49;101211.31;5066495;28;20030;-66
2021/03/05 03:10:11;;;;;;;2.95;1.20;;;;;;;-1.70;63.19;101214.03;5084662;28;20044;-66
2021/03/05 03:12:38;;;;;;;4.22;0.95;;;;;;;-1.76;63.43;101210.34;5084465;28;20064;-66
2021/03/05 03:15:11;;;;;;;4.40;1.08;;;;;;;-1.73;63.31;101206.22;5084401;28;20064;-66
2021/03/05 03:17:41;;;;;;;3.20;1.10;;;;;;;-1.73;63.34;101211.31;5084155;28;20028;-66
2021/03/05 03:20:08;;;;;;;2.72;1.27;;;;;;;-1.74;63.15;101218.06;5084393;28;20021;-66
2021/03/05 03:22:33;;;;;;;1.40;1.10;;;;;;;-1.79;63.28;101215.28;5084213;28;20028;-66
2021/03/05 03:24:59;;;;;;;3.50;1.58;;;;;;;-1.84;63.40;101214.16;5084151;28;20027;-66
2021/03/05 03:27:24;;;;;;;2.80;1.30;;;;;;;-1.88;63.54;101220.75;5083927;28;20074;-66
2021/03/05 03:29:50;;;;;;;3.22;1.20;;;;;;;-1.85;63.70;101219.19;5084354;28;20020;-66
2021/03/05 03:32:16;;;;;;;4.07;1.60;;;;;;;-1.93;63.87;101219.59;5083867;28;20020;-66
2021/03/05 03:34:42;;;;;;;1.95;1.10;;;;;;;-1.91;63.86;101229.88;5084009;28;20070;-66
2021/03/05 03:37:10;;;;;;;3.72;1.45;;;;;;;-1.95;63.94;101231.34;5083833;28;20052;-68
2021/03/05 03:39:37;;;;;;;2.67;1.63;;;;;;;-1.98;64.10;101236.28;5083910;28;20068;-66
2021/03/05 03:42:03;;;;;;;3.88;1.25;;;;;;;-2.01;64.23;101238.66;5084031;28;20108;-66
2021/03/05 03:44:29;;;;;;;4.10;1.40;;;;;;;-2.05;64.13;101240.16;5084019;28;20388;-67
2021/03/05 03:46:56;;;;;;;6.65;1.85;;;;;;;-2.17;64.07;101231.84;5083690;28;20051;-66
2021/03/05 03:49:40;;;;;;;1.98;1.20;;;;;;;-2.13;64.46;101241.41;5065722;28;20021;-66
2021/03/05 03:52:15;;;;;;;9.23;1.27;;;;;;;-2.11;64.38;101244.91;5083702;28;20040;-67
2021/03/05 03:54:42;;;;;;;6.50;3.67;;;;;;;-2.16;64.48;101243.75;5083615;28;20020;-67
2021/03/05 03:57:11;;;;;;;2.13;1.27;;;;;;;-2.13;63.95;101252.47;5065251;28;20092;-67
2021/03/05 03:59:38;;;;;;;3.28;1.25;;;;;;;-2.15;64.60;101255.69;5083814;28;20020;-67
2021/03/05 04:02:04;;;;;;;4.25;1.40;;;;;;;-2.19;64.40;101251.22;5083552;28;20054;-67
2021/03/05 04:04:33;;;;;;;5.05;1.15;;;;;;;-2.19;64.48;101256.31;5083768;28;20043;-68
2021/03/05 04:07:00;;;;;;;4.10;1.08;;;;;;;-2.21;64.67;101257.88;5083519;28;20032;-68
2021/03/05 04:09:29;;;;;;;2.65;1.30;;;;;;;-2.18;64.49;101268.22;5083767;28;20031;-67
2021/03/05 04:11:56;;;;;;;2.78;1.30;;;;;;;-2.17;64.45;101260.69;5083570;28;20419;-67
2021/03/05 04:14:25;;;;;;;2.72;1.30;;;;;;;-2.16;64.23;101266.66;5083746;28;20047;-67
2021/03/05 04:16:55;;;;;;;5.63;1.48;;;;;;;-2.18;64.12;101253.84;5083378;28;20032;-67
2021/03/05 04:19:22;;;;;;;2.50;1.10;;;;;;;-2.18;64.22;101256.41;5065135;28;20025;-67
2021/03/05 04:21:48;;;;;;;4.85;1.23;;;;;;;-2.19;64.14;101252.06;5083557;28;20028;-67
2021/03/05 04:24:13;;;;;;;4.68;1.20;;;;;;;-2.14;64.26;101254.91;5083556;28;20024;-67
2021/03/05 04:26:39;;;;;;;4.25;1.25;;;;;;;-2.12;63.84;101253.31;5083472;28;20365;-67
2021/03/05 04:29:04;;;;;;;3.15;1.20;;;;;;;-2.10;63.67;101263.56;5083334;28;20091;-67
2021/03/05 04:31:30;;;;;;;3.08;0.95;;;;;;;-2.14;63.72;101262.53;5083514;28;20046;-67
2021/03/05 04:33:55;;;;;;;3.90;1.10;;;;;;;-2.15;63.67;101258.22;5083313;28;20039;-68
2021/03/05 04:36:20;;;;;;;6.47;2.47;;;;;;;-2.11;63.63;101270.34;5083357;28;20102;-67
2021/03/05 04:38:46;;;;;;;2.78;1.20;;;;;;;-2.09;63.50;101276.38;5083323;28;20017;-68
2021/03/05 04:41:11;;;;;;;3.38;0.90;;;;;;;-2.16;63.42;101259.91;5083086;28;20051;-67
2021/03/05 04:43:37;;;;;;;1.98;1.30;;;;;;;-2.10;63.48;101276.31;5083491;28;20040;-68
2021/03/05 04:46:02;;;;;;;3.00;1.20;;;;;;;-2.18;63.54;101269.13;5083471;28;20059;-67
2021/03/05 04:48:27;;;;;;;3.58;1.30;;;;;;;-2.12;63.42;101282.19;5082835;28;20107;-68
2021/03/05 04:50:53;;;;;;;6.22;1.58;;;;;;;-2.19;63.32;101279.22;5083305;28;20032;-68
2021/03/05 04:53:18;;;;;;;3.85;1.48;;;;;;;-2.18;63.36;101283.50;5083303;28;20050;-68
2021/03/05 04:55:44;;;;;;;4.30;1.40;;;;;;;-2.19;63.30;101282.59;5083166;28;20461;-67
2021/03/05 04:58:09;;;;;;;3.17;1.00;;;;;;;-2.19;63.19;101294.47;5083018;28;20028;-68
2021/03/05 05:00:35;;;;;;;1.73;1.00;;;;;;;-2.21;62.99;101288.41;5083117;28;20025;-68
2021/03/05 05:03:00;;;;;;;2.30;1.45;;;;;;;-2.25;62.98;101292.44;5082748;28;20028;-67
2021/03/05 05:05:25;;;;;;;3.25;1.08;;;;;;;-2.28;62.95;101294.78;5082923;28;20082;-68
2021/03/05 05:07:51;;;;;;;2.58;1.27;;;;;;;-2.29;62.91;101296.47;5082895;28;20031;-67
2021/03/05 05:10:17;;;;;;;2.53;1.02;;;;;;;-2.35;62.96;101292.69;5084775;28;20040;-67
2021/03/05 05:12:43;;;;;;;3.78;1.40;;;;;;;-2.37;62.91;101292.59;5086675;28;20062;-67
2021/03/05 05:15:08;;;;;;;3.35;1.17;;;;;;;-2.45;62.99;101292.16;5086630;28;20035;-67
2021/03/05 05:17:34;;;;;;;4.22;1.30;;;;;;;-2.45;62.99;101307.41;5068558;28;20048;-66
2021/03/05 05:20:00;;;;;;;4.28;1.38;;;;;;;-2.51;63.04;101305.38;5086920;28;20527;-67
2021/03/05 05:22:26;;;;;;;3.63;1.65;;;;;;;-2.57;62.99;101305.00;5086820;28;20032;-67
2021/03/05 05:24:51;;;;;;;2.80;1.23;;;;;;;-2.59;62.95;101304.06;5068718;28;20048;-67
2021/03/05 05:27:17;;;;;;;5.32;1.70;;;;;;;-2.67;63.19;101308.69;5086521;28;20035;-69
2021/03/05 05:29:42;;;;;;;3.70;1.30;;;;;;;-2.71;63.48;101306.72;5068496;28;20078;-69
2021/03/05 05:32:07;;;;;;;3.03;1.10;;;;;;;-2.74;63.46;101312.50;5068573;28;20036;-69
2021/03/05 05:34:33;;;;;;;3.17;1.30;;;;;;;-2.76;63.71;101318.25;5086389;28;20098;-68
2021/03/05 05:36:58;;;;;;;4.22;1.10;;;;;;;-2.74;63.67;101315.06;5086321;28;20037;-68
2021/03/05 05:39:24;;;;;;;2.30;1.10;;;;;;;-2.71;63.59;101321.09;5086286;28;20033;-67
2021/03/05 05:41:49;;;;;;;3.13;1.40;;;;;;;-2.69;63.68;101324.59;5086363;28;20056;-69
2021/03/05 05:44:15;;;;;;;2.70;1.10;;;;;;;-2.69;63.67;101322.94;5068497;28;20020;-67
2021/03/05 05:46:42;;;;;;;3.17;0.90;;;;;;;-2.68;63.89;101331.44;5086395;28;20020;-67
2021/03/05 05:49:10;;;;;;;4.65;1.50;;;;;;;-2.68;64.10;101328.91;5086031;28;20096;-68
2021/03/05 05:51:38;;;;;;;4.28;1.30;;;;;;;-2.69;63.95;101332.22;5086257;28;20055;-67
2021/03/05 05:54:15;;;;;;;1.90;1.10;;;;;;;-2.70;64.08;101333.88;5068650;28;20025;-68
2021/03/05 05:56:43;;;;;;;2.17;1.33;;;;;;;-2.68;63.95;101339.06;5086303;28;20028;-67
2021/03/05 05:59:08;;;;;;;2.25;1.08;;;;;;;-2.67;63.96;101338.28;5086655;28;20171;-67
2021/03/05 06:01:34;;;;;;;1.30;1.00;;;;;;;-2.67;64.08;101336.66;5086302;28;20357;-68
2021/03/05 06:04:02;;;;;;;3.08;1.40;;;;;;;-2.62;63.87;101336.94;5085978;28;20183;-69
2021/03/05 06:06:31;;;;;;;10.07;1.45;;;;;;;-2.56;63.74;101342.38;5068772;28;20031;-67
2021/03/05 06:09:02;;;;;;;3.88;1.38;;;;;;;-2.52;63.61;101344.31;5096681;28;20039;-69
2021/03/05 06:11:35;;;;;;;7.30;1.50;;;;;;;-2.50;63.49;101342.75;5093557;28;20039;-68
2021/03/05 06:14:04;;;;;;;3.40;1.30;;;;;;;-2.42;63.32;101353.38;5091137;28;20028;-67
2021/03/05 06:16:30;;;;;;;3.88;1.50;;;;;;;-2.38;63.29;101351.91;5086284;28;20256;-74
2021/03/05 06:18:58;;;;;;;3.20;1.30;;;;;;;-2.37;63.30;101348.56;5085821;28;20557;-72
2021/03/05 06:21:38;;;;;;;4.60;1.55;;;;;;;-2.40;63.04;101351.81;5084887;28;20032;-71
2021/03/05 06:24:06;;;;;;;2.83;1.80;;;;;;;-2.37;62.81;101363.81;5085798;28;20090;-68
2021/03/05 06:26:54;;;;;;;3.03;1.50;;;;;;;-2.38;63.10;101357.00;5085396;28;20024;-69
2021/03/05 06:29:22;;;;;;;3.17;1.83;;;;;;;-2.34;62.89;101366.53;5085518;28;20025;-68
2021/03/05 06:32:00;;;;;;;4.80;1.52;;;;;;;-2.32;62.82;101361.56;5085352;28;20059;-70
2021/03/05 06:34:27;;;;;;;1.23;0.98;;;;;;;-2.27;63.04;101365.25;5085149;28;20016;-69
2021/03/05 06:37:00;;;;;;;3.17;1.15;;;;;;;-2.19;62.84;101360.63;5085233;28;20039;-68
2021/03/05 06:39:27;;;;;;;3.97;1.30;;;;;;;-2.10;62.87;101356.06;5085352;28;20102;-68
2021/03/05 06:41:58;;;;;;;1.88;0.93;;;;;;;-1.91;62.91;101362.22;5085330;28;20029;-73
2021/03/05 06:44:23;;;;;;;10.07;1.58;;;;;;;-1.47;63.13;101369.78;5085319;28;20017;-71
2021/03/05 06:46:49;;;;;;;5.55;1.63;;;;;;;-0.88;63.06;101361.13;5085247;28;20024;-69
2021/03/05 06:49:16;;;;;;;4.50;1.58;;;;;;;-0.29;62.15;101365.03;5084934;28;20024;-69
2021/03/05 06:51:50;;;;;;;5.75;1.65;;;;;;;0.26;60.56;101371.16;5085266;28;20020;-69
2021/03/05 06:54:15;;;;;;;4.78;1.65;;;;;;;0.78;60.53;101369.41;5084615;28;20084;-69
2021/03/05 06:56:45;;;;;;;3.75;1.40;;;;;;;1.35;60.15;101377.94;5084827;28;20059;-70
2021/03/05 06:59:13;;;;;;;5.28;1.70;;;;;;;1.93;59.07;101388.97;5084983;28;20480;-70
2021/03/05 07:01:59;;;;;;;3.97;1.38;;;;;;;2.77;59.23;101382.97;5084875;28;20024;-70
2021/03/05 07:04:32;;;;;;;9.00;2.15;;;;;;;3.60;59.29;101374.09;5084521;28;20016;-71
2021/03/05 07:07:11;;;;;;;3.50;1.55;;;;;;;4.19;56.88;101370.97;5066671;28;20532;-71
2021/03/05 07:09:48;;;;;;;8.35;1.58;;;;;;;4.77;54.83;101371.94;5084601;28;20025;-70
2021/03/05 07:12:22;;;;;;;4.60;1.80;;;;;;;5.48;53.00;101387.75;5084648;28;20385;-70
2021/03/05 07:14:50;;;;;;;2.70;1.40;;;;;;;6.15;52.16;101390.44;5084595;28;20021;-70
2021/03/05 07:17:18;;;;;;;3.42;1.33;;;;;;;6.72;50.94;101395.25;5066111;28;20111;-69
2021/03/05 07:19:44;;;;;;;2.92;1.30;;;;;;;7.29;49.90;101392.19;5084589;28;20047;-70
2021/03/05 07:22:12;;;;;;;9.95;1.58;;;;;;;8.05;49.49;101391.06;5084462;28;20020;-71
2021/03/05 07:24:38;;;;;;;4.18;1.27;;;;;;;8.44;47.02;101390.88;5066487;28;20020;-70
2021/03/05 07:27:05;;;;;;;9.15;1.65;;;;;;;8.85;46.14;101388.94;5084199;28;20450;-69
2021/03/05 07:29:45;;;;;;;3.40;1.55;;;;;;;9.16;44.92;101397.13;5084164;28;20389;-70
2021/03/05 07:32:39;;;;;;;2.15;1.23;;;;;;;9.38;42.85;101406.06;5083820;28;20027;-69
2021/03/05 07:35:07;;;;;;;11.15;1.20;;;;;;;9.33;41.71;101392.16;5084114;28;20420;-70
2021/03/05 07:37:49;;;;;;;3.67;1.10;;;;;;;9.43;40.83;101403.50;5083657;28;20052;-69
2021/03/05 07:40:16;;;;;;;7.57;1.30;;;;;;;9.45;40.93;101403.53;5083819;28;20047;-69
2021/03/05 07:42:42;;;;;;;3.63;1.38;;;;;;;9.66;40.70;101411.56;5084036;28;20036;-69
2021/03/05 07:45:10;;;;;;;4.57;1.20;;;;;;;10.10;40.70;101408.56;5084077;28;20020;-70
2021/03/05 07:47:37;;;;;;;4.45;1.00;;;;;;;9.97;38.97;101405.00;5083524;28;20086;-69
2021/03/05 07:50:06;;;;;;;9.20;1.60;;;;;;;10.01;37.73;101411.94;5083875;28;20016;-70
2021/03/05 07:52:32;;;;;;;13.43;1.75;;;;;;;10.10;38.22;101411.16;5065816;28;20049;-70
2021/03/05 07:54:57;;;;;;;2.67;1.10;;;;;;;10.08;36.92;101421.50;5083889;28;20111;-70
2021/03/05 07:57:22;;;;;;;9.07;1.75;;;;;;;10.20;37.50;101425.09;5083570;28;20123;-69
2021/03/05 07:59:52;;;;;;;13.38;1.33;;;;;;;10.25;36.81;101424.28;5083665;28;20028;-70
2021/03/05 08:02:19;;;;;;;11.52;1.48;;;;;;;10.15;35.53;101420.75;5084075;28;20055;-70
2021/03/05 08:04:48;;;;;;;8.05;1.20;;;;;;;10.21;35.78;101434.63;5083576;28;20047;-71
2021/03/05 08:07:13;;;;;;;7.85;1.45;;;;;;;10.37;34.57;101435.63;5083516;28;20028;-70
2021/03/05 08:09:39;;;;;;;9.15;1.67;;;;;;;10.31;34.34;101444.22;5083448;28;20052;-69
2021/03/05 08:12:28;;;;;;;2.90;0.90;;;;;;;10.10;33.85;101452.66;5083793;28;20131;-69
2021/03/05 08:15:14;;;;;;;5.90;1.40;;;;;;;9.85;32.69;101442.03;5083712;28;20099;-69
2021/03/05 08:17:49;;;;;;;4.28;1.17;;;;;;;9.69;32.70;101435.78;5069002;28;20036;-68
2021/03/05 08:20:17;;;;;;;3.88;1.67;;;;;;;9.33;33.76;101441.41;5083550;28;20017;-69
2021/03/05 08:22:58;;;;;;;3.08;1.05;;;;;;;9.12;33.41;101442.84;5065690;28;20026;-70
2021/03/05 08:25:31;;;;;;;4.65;1.38;;;;;;;9.17;34.18;101442.91;5083441;28;20042;-70
2021/03/05 08:27:58;;;;;;;4.43;1.52;;;;;;;9.37;33.45;101439.72;5083292;28;20057;-70
2021/03/05 08:30:26;;;;;;;6.22;1.60;;;;;;;9.38;32.79;101446.63;5083405;28;20025;-69
2021/03/05 08:32:57;;;;;;;5.68;1.83;;;;;;;9.32;32.14;101442.25;5083232;28;20017;-69
2021/03/05 08:35:29;;;;;;;4.93;1.48;;;;;;;9.15;33.03;101447.22;5083426;28;20032;-70
2021/03/05 08:38:04;;;;;;;6.22;2.47;;;;;;;8.99;32.67;101449.59;5083312;28;20021;-69
2021/03/05 08:40:30;;;;;;;2.00;1.00;;;;;;;8.48;31.74;101440.97;5082918;28;20528;-70
2021/03/05 08:42:57;;;;;;;4.93;1.17;;;;;;;7.87;32.93;101447.63;5065812;28;20029;-69
2021/03/05 08:45:32;;;;;;;9.02;1.80;;;;;;;7.53;33.18;101448.69;5085851;28;20023;-72
2021/03/05 08:48:02;;;;;;;8.73;1.50;;;;;;;7.17;33.73;101447.91;5087352;28;20027;-71
2021/03/05 08:50:33;;;;;;;3.42;0.80;;;;;;;7.00;34.07;101438.91;5069443;28;20023;-71
2021/03/05 08:53:03;;;;;;;8.70;1.35;;;;;;;6.59;33.96;101449.97;5087583;28;20032;-73
2021/03/05 08:55:35;;;;;;;5.25;1.25;;;;;;;6.10;34.44;101451.34;5087292;28;20028;-74
2021/03/05 08:58:01;;;;;;;4.32;1.20;;;;;;;5.87;35.22;101459.28;5087973;28;20048;-72
2021/03/05 09:00:30;;;;;;;2.55;1.02;;;;;;;5.76;35.42;101452.94;5087794;28;20050;-71
2021/03/05 09:03:08;;;;;;;5.53;1.73;;;;;;;5.68;36.13;101458.75;5087176;28;20083;-73
2021/03/05 09:05:37;;;;;;;3.42;1.20;;;;;;;5.76;35.96;101455.50;5087790;28;20016;-72
2021/03/05 09:08:03;;;;;;;5.93;1.30;;;;;;;5.77;36.11;101460.72;5087795;28;20017;-69
2021/03/05 09:10:42;;;;;;;6.57;1.05;;;;;;;5.79;35.52;101473.63;5087375;28;20035;-69
2021/03/05 09:13:08;;;;;;;1.92;1.00;;;;;;;5.79;36.31;101466.78;5087280;28;20016;-70
2021/03/05 09:15:47;;;;;;;6.18;1.40;;;;;;;5.81;36.47;101480.56;5086836;28;20017;-68
2021/03/05 09:18:15;;;;;;;3.00;1.10;;;;;;;6.12;36.14;101480.59;5086552;28;20020;-68
2021/03/05 09:20:51;;;;;;;4.35;1.00;;;;;;;6.30;35.47;101477.66;5068973;28;20063;-71
2021/03/05 09:23:21;;;;;;;1.55;0.95;;;;;;;6.29;35.49;101482.78;5086565;28;20024;-70
2021/03/05 09:25:52;;;;;;;6.95;1.10;;;;;;;6.45;36.60;101484.91;5086500;28;20042;-70
2021/03/05 09:28:21;;;;;;;5.68;1.30;;;;;;;6.92;36.15;101488.66;5086205;28;20569;-69
2021/03/05 09:30:49;;;;;;;1.80;1.15;;;;;;;7.46;35.07;101482.13;5086500;28;20043;-69
2021/03/05 09:33:15;;;;;;;2.28;1.10;;;;;;;7.43;33.88;101483.78;5086196;28;20480;-68
2021/03/05 09:35:40;;;;;;;5.28;1.08;;;;;;;7.24;34.19;101498.00;5086149;28;20051;-70
2021/03/05 09:38:07;;;;;;;3.47;1.30;;;;;;;7.18;33.72;101483.25;5086573;28;20024;-70
2021/03/05 09:40:33;;;;;;;6.10;1.05;;;;;;;6.92;33.91;101498.97;5086218;28;20045;-70
2021/03/05 09:43:00;;;;;;;4.68;1.33;;;;;;;6.96;35.20;101501.63;5086362;28;20033;-69
2021/03/05 09:45:39;;;;;;;8.07;1.50;;;;;;;7.33;35.34;101492.19;5086307;28;20028;-70
2021/03/05 09:48:07;;;;;;;8.77;1.50;;;;;;;7.56;34.34;101491.81;5085716;28;20090;-69
2021/03/05 09:50:34;;;;;;;4.45;1.23;;;;;;;7.73;34.03;101499.91;5086093;28;20520;-69
2021/03/05 09:53:19;;;;;;;3.85;1.10;;;;;;;7.81;33.00;101492.34;5085801;28;20031;-69
2021/03/05 09:55:49;;;;;;;4.85;1.27;;;;;;;7.76;33.16;101486.19;5085674;28;20036;-69
2021/03/05 09:58:14;;;;;;;5.38;1.38;;;;;;;7.60;33.39;101495.34;5067658;28;20424;-71
2021/03/05 10:00:40;;;;;;;8.27;1.70;;;;;;;7.74;34.41;101503.38;5085302;28;20017;-69
2021/03/05 10:03:10;;;;;;;10.45;1.15;;;;;;;7.87;33.00;101489.88;5085272;28;20028;-69
2021/03/05 10:05:37;;;;;;;6.57;1.48;;;;;;;7.79;32.97;101487.13;5085549;28;20013;-70
2021/03/05 10:08:25;;;;;;;2.40;0.60;;;;;;;7.83;32.79;101477.72;5085239;28;20031;-69
2021/03/05 10:10:58;;;;;;;5.97;1.05;;;;;;;7.85;32.05;101481.22;5085480;28;20043;-68
2021/03/05 10:13:49;;;;;;;3.92;0.85;;;;;;;7.74;31.65;101493.03;5085524;28;20048;-68
2021/03/05 10:16:29;;;;;;;4.60;0.80;;;;;;;7.78;30.99;101480.19;5084903;28;20354;-69
2021/03/05 10:19:10;;;;;;;2.65;0.93;;;;;;;7.94;30.90;101491.72;5085045;28;20059;-70
2021/03/05 10:21:41;;;;;;;7.05;1.40;;;;;;;8.19;31.09;101502.53;5067111;28;20036;-70
2021/03/05 10:24:10;;;;;;;7.45;1.48;;;;;;;8.68;30.35;101500.88;5085420;28;20025;-70
2021/03/05 10:27:10;;;;;;;6.95;1.20;;;;;;;8.88;29.91;101500.34;5085136;28;20468;-70
2021/03/05 10:29:22;;;;;;;7.32;1.27;;;;;;;8.88;29.56;101506.38;5084803;28;20058;-70
2021/03/05 10:31:52;;;;;;;4.22;1.10;;;;;;;8.71;29.97;101510.38;5085402;28;20020;-69
2021/03/05 10:34:26;;;;;;;7.28;1.10;;;;;;;8.77;29.91;101506.19;5085209;28;20017;-70
2021/03/05 10:36:54;;;;;;;7.72;1.08;;;;;;;8.68;29.95;101511.22;5066977;28;20582;-70
2021/03/05 10:39:19;;;;;;;5.20;1.35;;;;;;;8.58;29.56;101511.91;5085191;28;20092;-70
2021/03/05 10:41:59;;;;;;;0.55;0.50;;;;;;;8.73;29.73;101512.19;5085155;28;20043;-70
2021/03/05 10:44:28;;;;;;;6.28;1.20;;;;;;;8.93;29.54;101509.91;5085473;28;20060;-70
2021/03/05 10:47:02;;;;;;;13.65;1.38;;;;;;;9.36;29.22;101521.78;5084793;28;20092;-70
2021/03/05 10:49:28;;;;;;;6.13;1.00;;;;;;;9.69;28.49;101524.84;5084201;28;20020;-70
2021/03/05 10:51:55;;;;;;;2.17;0.65;;;;;;;10.11;28.35;101509.75;5084555;28;20024;-70
2021/03/05 10:54:21;;;;;;;1.58;0.80;;;;;;;10.59;27.68;101524.16;5084952;28;20031;-70
2021/03/05 10:56:50;;;;;;;3.85;1.33;;;;;;;10.75;27.24;101520.81;5085268;28;20028;-69
2021/03/05 10:59:17;;;;;;;1.38;0.80;;;;;;;10.76;26.49;101511.31;5085622;28;20021;-69
2021/03/05 11:01:44;;;;;;;4.60;0.80;;;;;;;10.37;26.35;101519.56;5067171;28;20095;-69
2021/03/05 11:04:09;;;;;;;1.45;0.70;;;;;;;10.09;26.69;101516.69;5084625;28;20035;-70
2021/03/05 11:06:35;;;;;;;4.53;1.20;;;;;;;9.99;26.83;101522.59;5084718;28;20028;-70
2021/03/05 11:09:02;;;;;;;1.70;1.00;;;;;;;10.25;26.95;101524.63;5084439;28;20024;-69
2021/03/05 11:11:28;;;;;;;18.67;1.65;;;;;;;10.53;26.52;101520.63;5084750;28;20021;-70
2021/03/05 11:13:53;;;;;;;5.38;1.52;;;;;;;10.35;26.93;101521.28;5084774;28;20030;-70
2021/03/05 11:16:19;;;;;;;2.08;0.90;;;;;;;10.69;26.73;101519.91;5084417;28;20051;-69
2021/03/05 11:18:44;;;;;;;3.20;0.90;;;;;;;11.08;27.26;101523.69;5084017;28;20067;-71
2021/03/05 11:21:09;;;;;;;1.88;0.68;;;;;;;11.84;26.98;101520.66;5066304;28;20119;-70
2021/03/05 11:23:35;;;;;;;10.02;1.30;;;;;;;12.79;25.25;101516.56;5084251;28;20030;-71
2021/03/05 11:26:00;;;;;;;3.72;0.88;;;;;;;13.72;24.15;101518.19;5084162;28;20542;-70
2021/03/05 11:28:26;;;;;;;2.70;1.00;;;;;;;14.32;24.57;101508.28;5066084;28;20032;-70
2021/03/05 11:30:52;;;;;;;2.05;0.90;;;;;;;15.01;24.10;101519.13;5084008;28;20084;-71
2021/03/05 11:33:17;;;;;;;3.75;1.08;;;;;;;15.91;23.26;101519.03;5083662;28;20050;-70
2021/03/05 11:35:43;;;;;;;1.60;0.63;;;;;;;16.15;22.03;101519.63;5083352;28;20484;-69